Time,TemperatureF,DewpointF,PressureIn,WindDirection,WindDirectionDegrees,WindSpeedMPH,WindSpeedGustMPH,Humidity,HourlyPrecipIn,Conditions,Clouds,dailyrainin,SoftwareType,DateUTC
2013-03-28 00:00:00,54.3,50.8,30.03,N/A,-737280,0.0,-999.0,88,0.00,,,0.00,Wunderground v.1.15,2013-03-28 07:00:00,
2013-03-28 00:05:00,54.4,51.2,30.04,N/A,-737280,0.0,-999.0,89,0.00,,,0.00,Wunderground v.1.15,2013-03-28 07:05:00,
2013-03-28 00:10:00,54.4,51.2,30.04,N/A,-737280,0.0,-999.0,89,0.00,,,0.00,Wunderground v.1.15,2013-03-28 07:10:00,
2013-03-28 00:15:00,54.4,51.2,30.03,N/A,-737280,0.0,-999.0,89,0.00,,,0.00,Wunderground v.1.15,2013-03-28 07:15:00,
2013-03-28 00:20:00,54.4,51.2,30.03,N/A,-737280,0.0,-999.0,89,0.00,,,0.00,Wunderground v.1.15,2013-03-28 07:20:00,
2013-03-28 00:25:00,54.4,51.2,30.03,N/A,-737280,0.0,-999.0,89,0.00,,,0.00,Wunderground v.1.15,2013-03-28 07:25:00,
2013-03-28 00:30:00,54.4,51.2,30.03,N/A,-737280,0.0,-999.0,89,0.00,,,0.00,Wunderground v.1.15,2013-03-28 07:30:00,
2013-03-28 00:35:00,54.4,51.2,30.03,N/A,-737280,0.0,-999.0,89,0.00,,,0.00,Wunderground v.1.15,2013-03-28 07:35:00,
2013-03-28 00:40:00,54.4,51.2,30.03,N/A,-737280,0.0,-999.0,89,0.00,,,0.00,Wunderground v.1.15,2013-03-28 07:40:00,
2013-03-28 00:45:00,54.1,50.9,30.03,N/A,-737280,0.0,-999.0,89,0.00,,,0.00,Wunderground v.1.15,2013-03-28 07:45:00,
2013-03-28 00:50:00,54.1,50.9,30.03,N/A,-737280,0.0,-999.0,89,0.00,,,0.00,Wunderground v.1.15,2013-03-28 07:50:00,
2013-03-28 00:55:00,53.8,50.6,30.03,N/A,-737280,0.0,-999.0,89,0.00,,,0.00,Wunderground v.1.15,2013-03-28 07:55:00,
2013-03-28 01:00:00,53.9,50.7,30.03,N/A,-737280,0.0,-999.0,89,0.00,,,0.00,Wunderground v.1.15,2013-03-28 08:00:00,
2013-03-28 01:05:00,53.9,50.7,30.03,N/A,-737280,0.0,-999.0,89,0.00,,,0.00,Wunderground v.1.15,2013-03-28 08:05:00,
2013-03-28 01:10:00,53.9,50.7,30.03,N/A,-737280,0.0,-999.0,89,0.00,,,0.00,Wunderground v.1.15,2013-03-28 08:10:00,
2013-03-28 01:15:00,53.9,50.7,30.03,N/A,-737280,0.0,-999.0,89,0.00,,,0.00,Wunderground v.1.15,2013-03-28 08:15:00,
2013-03-28 01:20:00,53.9,50.7,30.03,N/A,-737280,0.0,-999.0,89,0.00,,,0.00,Wunderground v.1.15,2013-03-28 08:20:00,
2013-03-28 01:25:00,53.7,50.5,30.03,N/A,-737280,0.0,-999.0,89,0.00,,,0.00,Wunderground v.1.15,2013-03-28 08:25:00,
2013-03-28 01:30:00,53.7,50.5,30.03,N/A,-737280,0.0,-999.0,89,0.00,,,0.00,Wunderground v.1.15,2013-03-28 08:30:00,
2013-03-28 01:35:00,53.7,50.8,30.03,N/A,-737280,0.0,-999.0,90,0.00,,,0.00,Wunderground v.1.15,2013-03-28 08:35:00,
2013-03-28 01:40:00,53.7,50.8,30.03,N/A,-737280,0.0,-999.0,90,0.00,,,0.00,Wunderground v.1.15,2013-03-28 08:40:00,
2013-03-28 01:45:00,53.5,50.3,30.03,N/A,-737280,0.0,-999.0,89,0.00,,,0.00,Wunderground v.1.15,2013-03-28 08:45:00,
2013-03-28 01:50:00,53.5,50.3,30.03,N/A,-737280,0.0,-999.0,89,0.00,,,0.00,Wunderground v.1.15,2013-03-28 08:50:00,
2013-03-28 01:55:00,53.3,50.1,30.03,N/A,-737280,0.0,-999.0,89,0.00,,,0.00,Wunderground v.1.15,2013-03-28 08:55:00,
2013-03-28 02:00:00,53.3,50.1,30.03,N/A,-737280,0.0,-999.0,89,0.00,,,0.00,Wunderground v.1.15,2013-03-28 09:00:00,
2013-03-28 02:05:00,53.0,49.8,30.03,N/A,-737280,0.0,-999.0,89,0.00,,,0.00,Wunderground v.1.15,2013-03-28 09:05:00,
2013-03-28 02:10:00,53.0,49.8,30.03,N/A,-737280,0.0,-999.0,89,0.00,,,0.00,Wunderground v.1.15,2013-03-28 09:10:00,
2013-03-28 02:15:00,52.9,50.0,30.03,N/A,-737280,0.0,-999.0,90,0.00,,,0.00,Wunderground v.1.15,2013-03-28 09:15:00,
2013-03-28 02:20:00,52.9,50.0,30.03,N/A,-737280,0.0,-999.0,90,0.00,,,0.00,Wunderground v.1.15,2013-03-28 09:20:00,
2013-03-28 02:25:00,52.8,49.9,30.03,N/A,-737280,0.0,-999.0,90,0.00,,,0.00,Wunderground v.1.15,2013-03-28 09:25:00,
2013-03-28 02:30:00,52.8,49.9,30.03,N/A,-737280,0.0,-999.0,90,0.00,,,0.00,Wunderground v.1.15,2013-03-28 09:30:00,
2013-03-28 02:35:00,53.1,50.2,30.02,N/A,-737280,0.0,-999.0,90,0.00,,,0.00,Wunderground v.1.15,2013-03-28 09:35:00,
2013-03-28 02:40:00,53.1,50.2,30.02,N/A,-737280,0.0,-999.0,90,0.00,,,0.00,Wunderground v.1.15,2013-03-28 09:40:00,
2013-03-28 02:45:00,53.4,50.5,30.03,N/A,-737280,0.0,-999.0,90,0.00,,,0.00,Wunderground v.1.15,2013-03-28 09:45:00,
2013-03-28 02:50:00,53.4,50.5,30.03,N/A,-737280,0.0,-999.0,90,0.00,,,0.00,Wunderground v.1.15,2013-03-28 09:50:00,
2013-03-28 02:55:00,54.1,51.2,30.02,N/A,-737280,0.0,-999.0,90,0.00,,,0.00,Wunderground v.1.15,2013-03-28 09:55:00,
2013-03-28 03:00:00,54.1,51.2,30.02,N/A,-737280,0.0,-999.0,90,0.00,,,0.00,Wunderground v.1.15,2013-03-28 10:00:00,
2013-03-28 03:05:00,54.5,51.6,30.02,N/A,-737280,0.0,-999.0,90,0.00,,,0.00,Wunderground v.1.15,2013-03-28 10:05:00,
2013-03-28 03:10:00,54.5,51.6,30.02,N/A,-737280,0.0,-999.0,90,0.00,,,0.00,Wunderground v.1.15,2013-03-28 10:10:00,
2013-03-28 03:15:00,54.9,52.0,30.02,N/A,-737280,0.0,-999.0,90,0.00,,,0.00,Wunderground v.1.15,2013-03-28 10:15:00,
2013-03-28 03:20:00,54.9,52.0,30.02,N/A,-737280,0.0,-999.0,90,0.00,,,0.00,Wunderground v.1.15,2013-03-28 10:20:00,
2013-03-28 03:25:00,55.1,52.2,30.02,N/A,-737280,0.0,-999.0,90,0.00,,,0.00,Wunderground v.1.15,2013-03-28 10:25:00,
2013-03-28 03:30:00,55.1,52.2,30.02,N/A,-737280,0.0,-999.0,90,0.00,,,0.00,Wunderground v.1.15,2013-03-28 10:30:00,
2013-03-28 03:35:00,55.3,52.4,30.01,N/A,-737280,0.0,-999.0,90,0.00,,,0.00,Wunderground v.1.15,2013-03-28 10:35:00,
2013-03-28 03:40:00,55.3,52.4,30.01,N/A,-737280,0.0,-999.0,90,0.00,,,0.00,Wunderground v.1.15,2013-03-28 10:40:00,
2013-03-28 03:45:00,55.5,52.6,30.01,N/A,-737280,0.0,-999.0,90,0.00,,,0.00,Wunderground v.1.15,2013-03-28 10:45:00,
2013-03-28 03:50:00,55.5,52.6,30.01,N/A,-737280,0.0,-999.0,90,0.00,,,0.00,Wunderground v.1.15,2013-03-28 10:50:00,
2013-03-28 03:55:00,55.6,52.7,30.01,N/A,-737280,0.0,-999.0,90,0.00,,,0.00,Wunderground v.1.15,2013-03-28 10:55:00,
2013-03-28 04:00:00,55.6,52.7,30.01,N/A,-737280,0.0,-999.0,90,0.00,,,0.00,Wunderground v.1.15,2013-03-28 11:00:00,
2013-03-28 04:05:00,55.9,53.0,30.01,N/A,-737280,0.0,-999.0,90,0.00,,,0.00,Wunderground v.1.15,2013-03-28 11:05:00,
2013-03-28 04:10:00,55.9,53.0,30.01,N/A,-737280,0.0,-999.0,90,0.00,,,0.00,Wunderground v.1.15,2013-03-28 11:10:00,
2013-03-28 04:15:00,55.9,53.0,30.01,South,180,0.0,-999.0,90,0.00,,,0.00,Wunderground v.1.15,2013-03-28 11:15:00,
2013-03-28 04:20:00,55.9,53.0,30.01,South,180,0.0,-999.0,90,0.00,,,0.00,Wunderground v.1.15,2013-03-28 11:20:00,
2013-03-28 04:25:00,56.1,52.9,30.01,South,180,0.0,-999.0,89,0.00,,,0.00,Wunderground v.1.15,2013-03-28 11:25:00,
2013-03-28 04:30:00,56.1,52.9,30.01,South,180,0.0,-999.0,89,0.00,,,0.00,Wunderground v.1.15,2013-03-28 11:30:00,
2013-03-28 04:35:00,56.4,53.2,30.01,East,90,0.0,-999.0,89,0.00,,,0.00,Wunderground v.1.15,2013-03-28 11:35:00,
2013-03-28 04:40:00,56.4,53.2,30.01,East,90,0.0,-999.0,89,0.00,,,0.00,Wunderground v.1.15,2013-03-28 11:40:00,
2013-03-28 04:45:00,56.6,53.4,30.01,East,90,0.0,-999.0,89,0.00,,,0.00,Wunderground v.1.15,2013-03-28 11:45:00,
2013-03-28 04:50:00,56.6,53.4,30.01,East,90,0.0,-999.0,89,0.00,,,0.00,Wunderground v.1.15,2013-03-28 11:50:00,
2013-03-28 04:55:00,56.8,53.3,30.02,East,90,0.0,-999.0,88,0.00,,,0.00,Wunderground v.1.15,2013-03-28 11:55:00,
2013-03-28 05:00:00,56.8,53.3,30.02,East,90,0.0,-999.0,88,0.00,,,0.00,Wunderground v.1.15,2013-03-28 12:00:00,
2013-03-28 05:05:00,57.0,53.5,30.01,East,90,0.0,-999.0,88,0.00,,,0.00,Wunderground v.1.15,2013-03-28 12:05:00,
2013-03-28 05:10:00,57.0,53.5,30.01,East,90,0.0,-999.0,88,0.00,,,0.00,Wunderground v.1.15,2013-03-28 12:10:00,
2013-03-28 05:15:00,57.1,53.3,30.02,East,90,0.0,-999.0,87,0.00,,,0.00,Wunderground v.1.15,2013-03-28 12:15:00,
2013-03-28 05:20:00,57.1,53.3,30.02,East,90,0.0,-999.0,87,0.00,,,0.00,Wunderground v.1.15,2013-03-28 12:20:00,
2013-03-28 05:25:00,57.2,53.4,30.02,N/A,-737280,0.0,-999.0,87,0.00,,,0.00,Wunderground v.1.15,2013-03-28 12:25:00,
2013-03-28 05:30:00,57.2,53.4,30.02,N/A,-737280,0.0,-999.0,87,0.00,,,0.00,Wunderground v.1.15,2013-03-28 12:30:00,
2013-03-28 05:35:00,57.1,53.3,30.02,N/A,-737280,0.0,-999.0,87,0.00,,,0.00,Wunderground v.1.15,2013-03-28 12:35:00,
2013-03-28 05:40:00,57.1,53.3,30.02,N/A,-737280,0.0,-999.0,87,0.00,,,0.00,Wunderground v.1.15,2013-03-28 12:40:00,
2013-03-28 05:45:00,57.2,53.4,30.02,N/A,-737280,0.0,-999.0,87,0.00,,,0.00,Wunderground v.1.15,2013-03-28 12:45:00,
2013-03-28 05:50:00,57.2,53.4,30.02,N/A,-737280,0.0,-999.0,87,0.00,,,0.00,Wunderground v.1.15,2013-03-28 12:50:00,
2013-03-28 05:55:00,57.3,53.5,30.02,N/A,-737280,0.0,-999.0,87,0.00,,,0.00,Wunderground v.1.15,2013-03-28 12:55:00,
2013-03-28 06:00:00,57.3,53.5,30.02,N/A,-737280,0.0,-999.0,87,0.00,,,0.00,Wunderground v.1.15,2013-03-28 13:00:00,
2013-03-28 06:05:00,57.3,53.5,30.01,East,90,0.0,-999.0,87,0.00,,,0.00,Wunderground v.1.15,2013-03-28 13:05:00,
2013-03-28 06:10:00,57.3,53.5,30.01,East,90,0.0,-999.0,87,0.00,,,0.00,Wunderground v.1.15,2013-03-28 13:10:00,
2013-03-28 06:15:00,57.4,53.2,30.01,N/A,-737280,0.0,-999.0,86,0.00,,,0.00,Wunderground v.1.15,2013-03-28 13:15:00,
2013-03-28 06:20:00,57.4,53.2,30.01,N/A,-737280,0.0,-999.0,86,0.00,,,0.00,Wunderground v.1.15,2013-03-28 13:20:00,
2013-03-28 06:25:00,57.5,53.3,30.01,East,90,0.0,-999.0,86,0.00,,,0.00,Wunderground v.1.15,2013-03-28 13:25:00,
2013-03-28 06:30:00,57.5,53.3,30.01,East,90,0.0,-999.0,86,0.00,,,0.00,Wunderground v.1.15,2013-03-28 13:30:00,
2013-03-28 06:35:00,57.7,53.5,30.02,East,90,0.0,-999.0,86,0.00,,,0.00,Wunderground v.1.15,2013-03-28 13:35:00,
2013-03-28 06:40:00,57.7,53.5,30.02,East,90,0.0,-999.0,86,0.00,,,0.00,Wunderground v.1.15,2013-03-28 13:40:00,
2013-03-28 06:45:00,57.7,53.2,30.02,East,90,1.0,-999.0,85,0.00,,,0.00,Wunderground v.1.15,2013-03-28 13:45:00,
2013-03-28 06:50:00,57.7,53.2,30.02,East,90,1.0,-999.0,85,0.00,,,0.00,Wunderground v.1.15,2013-03-28 13:50:00,
2013-03-28 06:55:00,57.7,53.2,30.03,East,90,0.0,-999.0,85,0.00,,,0.00,Wunderground v.1.15,2013-03-28 13:55:00,
2013-03-28 07:00:00,57.7,53.2,30.03,East,90,0.0,-999.0,85,0.00,,,0.00,Wunderground v.1.15,2013-03-28 14:00:00,
2013-03-28 07:05:00,57.7,53.2,30.02,East,90,0.0,-999.0,85,0.00,,,0.00,Wunderground v.1.15,2013-03-28 14:05:00,
2013-03-28 07:10:00,57.7,53.2,30.02,East,90,0.0,-999.0,85,0.00,,,0.00,Wunderground v.1.15,2013-03-28 14:10:00,
2013-03-28 07:15:00,57.9,53.4,30.03,East,90,0.0,-999.0,85,0.00,,,0.00,Wunderground v.1.15,2013-03-28 14:15:00,
2013-03-28 07:20:00,57.9,53.4,30.03,East,90,0.0,-999.0,85,0.00,,,0.00,Wunderground v.1.15,2013-03-28 14:20:00,
2013-03-28 07:25:00,58.0,53.5,30.03,East,90,0.0,-999.0,85,0.00,,,0.00,Wunderground v.1.15,2013-03-28 14:25:00,
2013-03-28 07:30:00,58.0,53.5,30.03,East,90,0.0,-999.0,85,0.00,,,0.00,Wunderground v.1.15,2013-03-28 14:30:00,
2013-03-28 07:35:00,58.1,53.6,30.04,N/A,-737280,0.0,-999.0,85,0.00,,,0.00,Wunderground v.1.15,2013-03-28 14:35:00,
2013-03-28 07:40:00,58.1,53.6,30.04,N/A,-737280,0.0,-999.0,85,0.00,,,0.00,Wunderground v.1.15,2013-03-28 14:40:00,
2013-03-28 07:45:00,58.2,53.7,30.05,SW,225,0.0,-999.0,85,0.00,,,0.00,Wunderground v.1.15,2013-03-28 14:45:00,
2013-03-28 07:50:00,58.2,53.7,30.05,SW,225,0.0,-999.0,85,0.00,,,0.00,Wunderground v.1.15,2013-03-28 14:50:00,
2013-03-28 07:55:00,58.4,53.6,30.05,N/A,-737280,0.0,-999.0,84,0.00,,,0.00,Wunderground v.1.15,2013-03-28 14:55:00,
2013-03-28 08:00:00,58.4,53.6,30.05,N/A,-737280,0.0,-999.0,84,0.00,,,0.00,Wunderground v.1.15,2013-03-28 15:00:00,
2013-03-28 08:05:00,58.5,53.7,30.05,N/A,-737280,0.0,-999.0,84,0.00,,,0.00,Wunderground v.1.15,2013-03-28 15:05:00,
2013-03-28 08:10:00,58.5,53.7,30.05,N/A,-737280,0.0,-999.0,84,0.00,,,0.00,Wunderground v.1.15,2013-03-28 15:10:00,
2013-03-28 08:12:00,58.6,53.8,30.05,SW,236,0.0,0.0,84,0.00,,,0.00,Wunderground v.1.15,2013-03-28 15:12:00,
2013-03-28 08:14:00,58.6,53.8,30.05,SW,236,0.0,0.0,84,0.00,,,0.00,Wunderground v.1.15,2013-03-28 15:14:00,
2013-03-28 08:15:00,58.7,53.9,30.05,SW,225,0.0,-999.0,84,0.00,,,0.00,Wunderground v.1.15,2013-03-28 15:15:00,
2013-03-28 08:18:00,58.7,53.9,30.05,SW,236,0.0,0.0,84,0.00,,,0.00,Wunderground v.1.15,2013-03-28 15:18:00,
2013-03-28 08:20:00,58.7,53.9,30.05,SW,225,0.0,-999.0,84,0.00,,,0.00,Wunderground v.1.15,2013-03-28 15:20:00,
2013-03-28 08:22:00,58.8,54.0,30.05,SW,236,0.0,0.0,84,0.00,,,0.00,Wunderground v.1.15,2013-03-28 15:22:00,
2013-03-28 08:24:00,58.9,54.1,30.05,SW,236,0.0,0.0,84,0.00,,,0.00,Wunderground v.1.15,2013-03-28 15:24:00,
2013-03-28 08:25:00,59.0,53.8,30.05,SW,225,0.0,-999.0,83,0.00,,,0.00,Wunderground v.1.15,2013-03-28 15:25:00,
2013-03-28 08:26:00,59.0,54.2,30.05,SW,236,0.0,0.0,84,0.00,,,0.00,Wunderground v.1.15,2013-03-28 15:26:00,
2013-03-28 08:28:00,59.0,53.8,30.05,SW,236,0.0,1.0,83,0.00,,,0.00,Wunderground v.1.15,2013-03-28 15:28:00,
2013-03-28 08:30:00,59.0,53.8,30.05,SW,225,0.0,-999.0,83,0.00,,,0.00,Wunderground v.1.15,2013-03-28 15:30:00,
2013-03-28 08:34:00,59.1,53.9,30.05,SW,236,0.0,0.0,83,0.00,,,0.00,Wunderground v.1.15,2013-03-28 15:34:00,
2013-03-28 08:35:00,59.3,53.8,30.06,SW,225,0.0,-999.0,82,0.00,,,0.00,Wunderground v.1.15,2013-03-28 15:35:00,
2013-03-28 08:36:00,59.2,53.7,30.05,SW,236,0.0,0.0,82,0.00,,,0.00,Wunderground v.1.15,2013-03-28 15:36:00,
2013-03-28 08:40:00,59.3,53.8,30.06,SW,225,0.0,-999.0,82,0.00,,,0.00,Wunderground v.1.15,2013-03-28 15:40:00,
2013-03-28 08:42:00,59.4,53.9,30.05,SW,236,0.0,0.0,82,0.00,,,0.00,Wunderground v.1.15,2013-03-28 15:42:00,
2013-03-28 08:44:00,59.5,54.0,30.05,SW,236,0.0,0.0,82,0.00,,,0.00,Wunderground v.1.15,2013-03-28 15:44:00,
2013-03-28 08:45:00,59.6,53.8,30.05,SW,225,0.0,-999.0,81,0.00,,,0.00,Wunderground v.1.15,2013-03-28 15:45:00,
2013-03-28 08:46:00,59.5,54.0,30.05,SW,236,0.0,0.0,82,0.00,,,0.00,Wunderground v.1.15,2013-03-28 15:46:00,
2013-03-28 08:48:00,59.5,54.0,30.05,SW,236,0.0,0.0,82,0.00,,,0.00,Wunderground v.1.15,2013-03-28 15:48:00,
2013-03-28 08:50:00,59.6,53.8,30.05,SW,236,0.0,0.0,81,0.00,,,0.00,Wunderground v.1.15,2013-03-28 15:50:00,
2013-03-28 08:54:00,59.7,53.9,30.05,SW,236,0.0,2.0,81,0.00,,,0.00,Wunderground v.1.15,2013-03-28 15:54:00,
2013-03-28 08:55:00,59.8,54.0,30.05,SW,225,1.0,-999.0,81,0.00,,,0.00,Wunderground v.1.15,2013-03-28 15:55:00,
2013-03-28 09:00:00,59.9,54.1,30.05,SW,236,1.0,1.0,81,0.00,,,0.00,Wunderground v.1.15,2013-03-28 16:00:00,
2013-03-28 09:02:00,59.9,54.1,30.05,SW,236,1.0,1.0,81,0.00,,,0.00,Wunderground v.1.15,2013-03-28 16:02:00,
2013-03-28 09:04:00,60.0,54.2,30.06,SW,236,1.0,1.0,81,0.00,,,0.00,Wunderground v.1.15,2013-03-28 16:04:00,
2013-03-28 09:05:00,60.4,54.2,30.06,SW,225,0.0,-999.0,80,0.00,,,0.00,Wunderground v.1.15,2013-03-28 16:05:00,
2013-03-28 09:08:00,60.2,54.0,30.06,SW,236,0.0,1.0,80,0.00,,,0.00,Wunderground v.1.15,2013-03-28 16:08:00,
2013-03-28 09:10:00,60.4,54.2,30.06,SW,236,0.0,0.0,80,0.00,,,0.00,Wunderground v.1.15,2013-03-28 16:10:00,
2013-03-28 09:14:00,60.6,54.4,30.06,SW,236,0.0,0.0,80,0.00,,,0.00,Wunderground v.1.15,2013-03-28 16:14:00,
2013-03-28 09:15:00,61.0,54.4,30.06,SW,225,0.0,-999.0,79,0.00,,,0.00,Wunderground v.1.15,2013-03-28 16:15:00,
2013-03-28 09:20:00,61.1,54.5,30.06,WSW,243,0.0,0.0,79,0.00,,,0.00,Wunderground v.1.15,2013-03-28 16:20:00,
2013-03-28 09:25:00,61.5,54.6,30.06,WNW,293,0.0,-999.0,78,0.00,,,0.00,Wunderground v.1.15,2013-03-28 16:25:00,
2013-03-28 09:26:00,61.3,54.4,30.06,WNW,291,0.0,1.0,78,0.00,,,0.00,Wunderground v.1.15,2013-03-28 16:26:00,
2013-03-28 09:30:00,61.5,54.6,30.06,WNW,293,0.0,-999.0,78,0.00,,,0.00,Wunderground v.1.15,2013-03-28 16:30:00,
2013-03-28 09:31:00,61.7,54.8,30.06,WNW,288,0.0,1.0,78,0.00,,,0.00,Wunderground v.1.15,2013-03-28 16:31:00,
2013-03-28 09:32:00,61.8,54.5,30.07,WNW,288,0.0,1.0,77,0.00,,,0.00,Wunderground v.1.15,2013-03-28 16:32:00,
2013-03-28 09:35:00,62.0,54.3,30.06,West,270,1.0,-999.0,76,0.00,,,0.00,Wunderground v.1.15,2013-03-28 16:35:00,
2013-03-28 09:38:00,62.0,54.3,30.07,West,260,1.0,3.0,76,0.00,,,0.00,Wunderground v.1.15,2013-03-28 16:38:00,
2013-03-28 09:40:00,62.0,54.3,30.06,West,259,1.0,3.0,76,0.00,,,0.00,Wunderground v.1.15,2013-03-28 16:40:00,
2013-03-28 09:44:00,62.0,54.7,30.06,WSW,256,1.0,1.0,77,0.00,,,0.00,Wunderground v.1.15,2013-03-28 16:44:00,
2013-03-28 09:45:00,62.3,55.0,30.06,WSW,248,1.0,-999.0,77,0.00,,,0.00,Wunderground v.1.15,2013-03-28 16:45:00,
2013-03-28 09:46:00,62.1,54.4,30.06,WSW,252,1.0,1.0,76,0.00,,,0.00,Wunderground v.1.15,2013-03-28 16:46:00,
2013-03-28 09:50:00,62.3,54.6,30.06,WSW,252,1.0,1.0,76,0.00,,,0.00,Wunderground v.1.15,2013-03-28 16:50:00,
2013-03-28 09:54:00,62.3,54.6,30.06,WSW,252,0.0,1.0,76,0.00,,,0.00,Wunderground v.1.15,2013-03-28 16:54:00,
2013-03-28 09:55:00,62.6,54.9,30.06,WSW,248,0.0,-999.0,76,0.00,,,0.00,Wunderground v.1.15,2013-03-28 16:55:00,
2013-03-28 09:58:00,62.4,54.7,30.06,SW,226,0.0,1.0,76,0.00,,,0.00,Wunderground v.1.15,2013-03-28 16:58:00,
2013-03-28 10:00:00,62.6,54.9,30.06,SW,225,0.0,2.0,76,0.00,,,0.00,Wunderground v.1.15,2013-03-28 17:00:00,
2013-03-28 10:02:00,62.7,54.7,30.06,SW,225,0.0,2.0,75,0.00,,,0.00,Wunderground v.1.15,2013-03-28 17:02:00,
2013-03-28 10:05:00,63.5,55.1,30.06,SW,225,0.0,-999.0,74,0.00,,,0.00,Wunderground v.1.15,2013-03-28 17:05:00,
2013-03-28 10:08:00,63.4,55.0,30.06,SW,225,0.0,2.0,74,0.00,,,0.00,Wunderground v.1.15,2013-03-28 17:08:00,
2013-03-28 10:10:00,63.5,55.1,30.06,SW,225,0.0,0.0,74,0.00,,,0.00,Wunderground v.1.15,2013-03-28 17:10:00,
2013-03-28 10:14:00,63.8,55.4,30.06,SW,225,0.0,0.0,74,0.00,,,0.00,Wunderground v.1.15,2013-03-28 17:14:00,
2013-03-28 10:15:00,64.2,55.7,30.06,SW,225,0.0,-999.0,74,0.00,,,0.00,Wunderground v.1.15,2013-03-28 17:15:00,
2013-03-28 10:18:00,64.1,55.3,30.06,SW,225,0.0,0.0,73,0.00,,,0.00,Wunderground v.1.15,2013-03-28 17:18:00,
2013-03-28 10:20:00,64.3,55.5,30.06,SW,225,0.0,0.0,73,0.00,,,0.00,Wunderground v.1.15,2013-03-28 17:20:00,
2013-03-28 10:24:00,64.6,55.4,30.06,ESE,122,0.0,2.0,72,0.00,,,0.00,Wunderground v.1.15,2013-03-28 17:24:00,
2013-03-28 10:25:00,65.0,55.4,30.06,ESE,113,1.0,-999.0,71,0.00,,,0.00,Wunderground v.1.15,2013-03-28 17:25:00,
2013-03-28 10:28:00,64.9,55.3,30.06,ESE,115,1.0,2.0,71,0.00,,,0.00,Wunderground v.1.15,2013-03-28 17:28:00,
2013-03-28 10:30:00,65.1,55.5,30.06,ESE,118,1.0,1.0,71,0.00,,,0.00,Wunderground v.1.15,2013-03-28 17:30:00,
2013-03-28 10:34:00,65.2,55.2,30.06,East,84,1.0,2.0,70,0.00,,,0.00,Wunderground v.1.15,2013-03-28 17:34:00,
2013-03-28 10:35:00,65.2,55.2,30.06,East,90,1.0,-999.0,70,0.00,,,0.00,Wunderground v.1.15,2013-03-28 17:35:00,
2013-03-28 10:38:00,65.2,55.2,30.06,East,94,1.0,2.0,70,0.00,,,0.00,Wunderground v.1.15,2013-03-28 17:38:00,
2013-03-28 10:40:00,65.2,55.2,30.06,East,90,1.0,-999.0,70,0.00,,,0.00,Wunderground v.1.15,2013-03-28 17:40:00,
2013-03-28 10:42:00,65.2,55.2,30.06,ENE,74,1.0,2.0,70,0.00,,,0.00,Wunderground v.1.15,2013-03-28 17:42:00,
2013-03-28 10:45:00,65.4,55.7,30.06,ENE,68,0.0,-999.0,71,0.00,,,0.00,Wunderground v.1.15,2013-03-28 17:45:00,
2013-03-28 10:48:00,65.2,55.2,30.06,ENE,74,1.0,2.0,70,0.00,,,0.00,Wunderground v.1.15,2013-03-28 17:48:00,
2013-03-28 10:50:00,65.5,55.8,30.06,ENE,74,1.0,2.0,71,0.00,,,0.00,Wunderground v.1.15,2013-03-28 17:50:00,
2013-03-28 10:52:00,65.7,55.6,30.06,ENE,74,0.0,0.0,70,0.00,,,0.00,Wunderground v.1.15,2013-03-28 17:52:00,
2013-03-28 10:55:00,66.4,55.5,30.06,ENE,68,0.0,-999.0,68,0.00,,,0.00,Wunderground v.1.15,2013-03-28 17:55:00,
2013-03-28 10:56:00,66.2,55.7,30.06,ENE,62,0.0,0.0,69,0.00,,,0.00,Wunderground v.1.15,2013-03-28 17:56:00,
2013-03-28 10:58:00,66.4,55.9,30.06,ENE,61,0.0,0.0,69,0.00,,,0.00,Wunderground v.1.15,2013-03-28 17:58:00,
2013-03-28 11:00:00,66.4,55.5,30.06,ENE,61,0.0,0.0,68,0.00,,,0.00,Wunderground v.1.15,2013-03-28 18:00:00,
2013-03-28 11:02:00,66.5,56.0,30.06,ENE,61,0.0,0.0,69,0.00,,,0.00,Wunderground v.1.15,2013-03-28 18:02:00,
2013-03-28 11:04:00,66.7,55.8,30.06,NE,55,0.0,1.0,68,0.00,,,0.00,Wunderground v.1.15,2013-03-28 18:04:00,
2013-03-28 11:05:00,66.9,55.6,30.06,NE,45,0.0,-999.0,67,0.00,,,0.00,Wunderground v.1.15,2013-03-28 18:05:00,
2013-03-28 11:06:00,66.8,55.9,30.06,NE,55,0.0,1.0,68,0.00,,,0.00,Wunderground v.1.15,2013-03-28 18:06:00,
2013-03-28 11:10:00,67.0,55.7,30.06,North,360,0.0,0.0,67,0.00,,,0.00,Wunderground v.1.15,2013-03-28 18:10:00,
2013-03-28 11:12:00,67.0,55.7,30.06,North,5,0.0,0.0,67,0.00,,,0.00,Wunderground v.1.15,2013-03-28 18:12:00,
2013-03-28 11:15:00,67.3,56.0,30.06,ENE,68,1.0,-999.0,67,0.00,,,0.00,Wunderground v.1.15,2013-03-28 18:15:00,
2013-03-28 11:18:00,67.3,56.4,30.06,ENE,71,1.0,1.0,68,0.00,,,0.00,Wunderground v.1.15,2013-03-28 18:18:00,
2013-03-28 11:20:00,67.3,56.0,30.06,ENE,68,1.0,-999.0,67,0.00,,,0.00,Wunderground v.1.15,2013-03-28 18:20:00,
2013-03-28 11:25:00,67.7,56.8,30.05,West,270,1.0,-999.0,68,0.00,,,0.00,Wunderground v.1.15,2013-03-28 18:25:00,
2013-03-28 11:30:00,67.7,56.8,30.05,West,270,1.0,-999.0,68,0.00,,,0.00,Wunderground v.1.15,2013-03-28 18:30:00,
2013-03-28 11:35:00,67.0,56.9,30.05,SW,225,3.0,-999.0,70,0.00,,,0.00,Wunderground v.1.15,2013-03-28 18:35:00,
2013-03-28 11:40:00,67.0,56.9,30.05,SW,225,3.0,-999.0,70,0.00,,,0.00,Wunderground v.1.15,2013-03-28 18:40:00,
2013-03-28 11:45:00,67.0,56.9,30.05,SW,225,2.0,-999.0,70,0.00,,,0.00,Wunderground v.1.15,2013-03-28 18:45:00,
2013-03-28 11:50:00,67.0,56.9,30.05,SW,225,2.0,-999.0,70,0.00,,,0.00,Wunderground v.1.15,2013-03-28 18:50:00,
2013-03-28 11:55:00,67.9,57.4,30.05,SW,225,2.0,-999.0,69,0.00,,,0.00,Wunderground v.1.15,2013-03-28 18:55:00,
2013-03-28 12:00:00,67.9,57.4,30.05,SW,225,2.0,-999.0,69,0.00,,,0.00,Wunderground v.1.15,2013-03-28 19:00:00,
2013-03-28 12:05:00,68.3,57.7,30.05,SW,225,3.0,-999.0,69,0.00,,,0.00,Wunderground v.1.15,2013-03-28 19:05:00,
2013-03-28 12:10:00,68.3,57.7,30.05,SW,225,3.0,-999.0,69,0.00,,,0.00,Wunderground v.1.15,2013-03-28 19:10:00,
2013-03-28 12:15:00,68.0,57.8,30.05,SW,225,4.0,-999.0,70,0.00,,,0.00,Wunderground v.1.15,2013-03-28 19:15:00,
2013-03-28 12:20:00,68.0,57.8,30.05,SW,225,4.0,-999.0,70,0.00,,,0.00,Wunderground v.1.15,2013-03-28 19:20:00,
2013-03-28 12:25:00,68.0,57.8,30.04,SW,225,3.0,-999.0,70,0.00,,,0.00,Wunderground v.1.15,2013-03-28 19:25:00,
2013-03-28 12:30:00,68.0,57.8,30.04,SW,225,3.0,-999.0,70,0.00,,,0.00,Wunderground v.1.15,2013-03-28 19:30:00,
2013-03-28 12:35:00,67.9,57.8,30.04,SW,225,4.0,-999.0,70,0.00,,,0.00,Wunderground v.1.15,2013-03-28 19:35:00,
2013-03-28 12:40:00,67.9,57.8,30.04,SW,225,4.0,-999.0,70,0.00,,,0.00,Wunderground v.1.15,2013-03-28 19:40:00,
2013-03-28 12:45:00,67.4,58.1,30.04,SSW,203,4.0,-999.0,72,0.00,,,0.00,Wunderground v.1.15,2013-03-28 19:45:00,
2013-03-28 12:50:00,67.4,58.1,30.04,SSW,203,4.0,-999.0,72,0.00,,,0.00,Wunderground v.1.15,2013-03-28 19:50:00,
2013-03-28 12:55:00,68.0,57.8,30.03,SSW,203,4.0,-999.0,70,0.00,,,0.00,Wunderground v.1.15,2013-03-28 19:55:00,
2013-03-28 13:00:00,68.0,57.8,30.03,SSW,203,4.0,-999.0,70,0.00,,,0.00,Wunderground v.1.15,2013-03-28 20:00:00,
2013-03-28 13:05:00,67.5,57.4,30.03,SSW,203,5.0,-999.0,70,0.00,,,0.00,Wunderground v.1.15,2013-03-28 20:05:00,
2013-03-28 13:10:00,67.5,57.4,30.03,SSW,203,5.0,-999.0,70,0.00,,,0.00,Wunderground v.1.15,2013-03-28 20:10:00,
2013-03-28 13:15:00,67.9,57.8,30.03,South,180,4.0,-999.0,70,0.00,,,0.00,Wunderground v.1.15,2013-03-28 20:15:00,
2013-03-28 13:20:00,67.9,57.8,30.03,South,180,4.0,-999.0,70,0.00,,,0.00,Wunderground v.1.15,2013-03-28 20:20:00,
2013-03-28 13:25:00,67.5,57.8,30.02,SW,225,4.0,-999.0,71,0.00,,,0.00,Wunderground v.1.15,2013-03-28 20:25:00,
2013-03-28 13:30:00,67.5,57.8,30.02,SW,225,4.0,-999.0,71,0.00,,,0.00,Wunderground v.1.15,2013-03-28 20:30:00,
2013-03-28 13:35:00,67.1,57.8,30.03,SW,225,5.0,-999.0,72,0.00,,,0.00,Wunderground v.1.15,2013-03-28 20:35:00,
2013-03-28 13:40:00,67.1,57.8,30.03,SW,225,5.0,-999.0,72,0.00,,,0.00,Wunderground v.1.15,2013-03-28 20:40:00,
2013-03-28 13:45:00,67.4,57.7,30.02,SSW,203,5.0,-999.0,71,0.00,,,0.00,Wunderground v.1.15,2013-03-28 20:45:00,
2013-03-28 13:50:00,67.4,57.7,30.02,SSW,203,5.0,-999.0,71,0.00,,,0.00,Wunderground v.1.15,2013-03-28 20:50:00,
2013-03-28 13:55:00,67.2,57.5,30.02,SSW,203,6.0,-999.0,71,0.00,,,0.00,Wunderground v.1.15,2013-03-28 20:55:00,
2013-03-28 14:00:00,67.2,57.5,30.02,SSW,203,6.0,-999.0,71,0.00,,,0.00,Wunderground v.1.15,2013-03-28 21:00:00,
2013-03-28 14:05:00,66.6,57.3,30.02,SSW,203,7.0,-999.0,72,0.00,,,0.00,Wunderground v.1.15,2013-03-28 21:05:00,
2013-03-28 14:10:00,66.6,57.3,30.02,SSW,203,7.0,-999.0,72,0.00,,,0.00,Wunderground v.1.15,2013-03-28 21:10:00,
2013-03-28 14:15:00,66.6,57.3,30.02,SW,225,6.0,-999.0,72,0.00,,,0.00,Wunderground v.1.15,2013-03-28 21:15:00,
2013-03-28 14:20:00,66.6,57.3,30.02,SW,225,6.0,-999.0,72,0.00,,,0.00,Wunderground v.1.15,2013-03-28 21:20:00,
2013-03-28 14:25:00,66.4,56.7,30.01,SW,225,7.0,-999.0,71,0.00,,,0.00,Wunderground v.1.15,2013-03-28 21:25:00,
2013-03-28 14:30:00,66.4,56.7,30.01,SW,225,7.0,-999.0,71,0.00,,,0.00,Wunderground v.1.15,2013-03-28 21:30:00,
2013-03-28 14:35:00,67.4,57.7,30.01,SW,225,5.0,-999.0,71,0.00,,,0.00,Wunderground v.1.15,2013-03-28 21:35:00,
2013-03-28 14:40:00,67.4,57.7,30.01,SW,225,5.0,-999.0,71,0.00,,,0.00,Wunderground v.1.15,2013-03-28 21:40:00,
2013-03-28 14:42:00,67.5,57.4,30.01,SW,232,6.0,6.0,70,0.00,,,0.00,Wunderground v.1.15,2013-03-28 21:42:00,
2013-03-28 14:44:00,67.5,57.0,30.01,SW,233,6.0,12.0,69,0.00,,,0.00,Wunderground v.1.15,2013-03-28 21:44:00,
2013-03-28 14:45:00,67.6,57.5,30.01,SW,225,6.0,-999.0,70,0.00,,,0.00,Wunderground v.1.15,2013-03-28 21:45:00,
2013-03-28 14:46:00,67.5,57.4,30.01,SW,232,6.0,12.0,70,0.00,,,0.00,Wunderground v.1.15,2013-03-28 21:46:00,
2013-03-28 14:48:00,67.5,57.4,30.01,SW,231,6.0,12.0,70,0.00,,,0.00,Wunderground v.1.15,2013-03-28 21:48:00,
2013-03-28 14:50:00,67.6,57.5,30.01,SW,225,6.0,-999.0,70,0.00,,,0.00,Wunderground v.1.15,2013-03-28 21:50:00,
2013-03-28 14:52:00,67.7,57.2,30.01,South,184,6.0,6.0,69,0.00,,,0.00,Wunderground v.1.15,2013-03-28 21:52:00,
2013-03-28 14:54:00,68.1,57.5,30.01,South,186,5.0,6.0,69,0.00,,,0.00,Wunderground v.1.15,2013-03-28 21:54:00,
2013-03-28 14:55:00,68.7,57.3,30.01,SW,225,5.0,-999.0,67,0.00,,,0.00,Wunderground v.1.15,2013-03-28 21:55:00,
2013-03-28 14:56:00,68.4,57.4,30.01,SW,229,5.0,6.0,68,0.00,,,0.00,Wunderground v.1.15,2013-03-28 21:56:00,
2013-03-28 15:00:00,68.7,57.3,30.01,SSW,201,5.0,5.0,67,0.00,,,0.00,Wunderground v.1.15,2013-03-28 22:00:00,
2013-03-28 15:02:00,68.7,57.3,30.01,SW,219,5.0,5.0,67,0.00,,,0.00,Wunderground v.1.15,2013-03-28 22:02:00,
2013-03-28 15:04:00,68.6,56.8,30.01,South,188,5.0,5.0,66,0.00,,,0.00,Wunderground v.1.15,2013-03-28 22:04:00,
2013-03-28 15:05:00,68.4,57.0,30.01,SW,225,5.0,-999.0,67,0.00,,,0.00,Wunderground v.1.15,2013-03-28 22:05:00,
2013-03-28 15:06:00,68.5,57.1,30.01,SSW,207,6.0,6.0,67,0.00,,,0.00,Wunderground v.1.15,2013-03-28 22:06:00,
2013-03-28 15:10:00,68.4,57.0,30.01,SW,225,5.0,-999.0,67,0.00,,,0.00,Wunderground v.1.15,2013-03-28 22:10:00,
2013-03-28 15:12:00,68.5,56.7,30.01,SSW,213,5.0,5.0,66,0.00,,,0.00,Wunderground v.1.15,2013-03-28 22:12:00,
2013-03-28 15:14:00,68.4,56.6,30.01,South,185,5.0,7.0,66,0.00,,,0.00,Wunderground v.1.15,2013-03-28 22:14:00,
2013-03-28 15:15:00,68.4,57.0,30.01,SSW,203,5.0,-999.0,67,0.00,,,0.00,Wunderground v.1.15,2013-03-28 22:15:00,
2013-03-28 15:18:00,68.4,56.6,30.01,SSW,209,5.0,7.0,66,0.00,,,0.00,Wunderground v.1.15,2013-03-28 22:18:00,
2013-03-28 15:20:00,68.4,57.0,30.01,WSW,240,5.0,5.0,67,0.00,,,0.00,Wunderground v.1.15,2013-03-28 22:20:00,
2013-03-28 15:25:00,68.8,57.4,30.01,SW,225,4.0,-999.0,67,0.00,,,0.00,Wunderground v.1.15,2013-03-28 22:25:00,
2013-03-28 15:26:00,68.8,57.4,30.01,SW,232,5.0,5.0,67,0.00,,,0.00,Wunderground v.1.15,2013-03-28 22:26:00,
2013-03-28 15:28:00,68.8,57.4,30.01,WSW,244,4.0,5.0,67,0.00,,,0.00,Wunderground v.1.15,2013-03-28 22:28:00,
2013-03-28 15:30:00,68.8,57.4,30.01,SW,225,4.0,-999.0,67,0.00,,,0.00,Wunderground v.1.15,2013-03-28 22:30:00,
2013-03-28 15:32:00,69.0,57.6,30.01,SSW,207,4.0,4.0,67,0.00,,,0.00,Wunderground v.1.15,2013-03-28 22:32:00,
2013-03-28 15:34:00,69.3,57.0,30.01,SSW,194,4.0,4.0,65,0.00,,,0.00,Wunderground v.1.15,2013-03-28 22:34:00,
2013-03-28 15:35:00,69.4,57.1,30.00,SSW,203,4.0,-999.0,65,0.00,,,0.00,Wunderground v.1.15,2013-03-28 22:35:00,
2013-03-28 15:36:00,69.4,57.1,30.01,SSW,205,4.0,5.0,65,0.00,,,0.00,Wunderground v.1.15,2013-03-28 22:36:00,
2013-03-28 15:40:00,69.4,57.1,30.00,SSW,203,4.0,-999.0,65,0.00,,,0.00,Wunderground v.1.15,2013-03-28 22:40:00,
2013-03-28 15:42:00,69.3,57.0,30.01,WSW,239,5.0,9.0,65,0.00,,,0.00,Wunderground v.1.15,2013-03-28 22:42:00,
2013-03-28 15:45:00,69.3,56.6,30.00,SW,225,4.0,-999.0,64,0.00,,,0.00,Wunderground v.1.15,2013-03-28 22:45:00,
2013-03-28 15:46:00,69.2,56.5,30.01,WSW,248,5.0,9.0,64,0.00,,,0.00,Wunderground v.1.15,2013-03-28 22:46:00,
2013-03-28 15:48:00,69.3,56.6,30.00,SW,230,4.0,9.0,64,0.00,,,0.00,Wunderground v.1.15,2013-03-28 22:48:00,
2013-03-28 15:50:00,69.3,56.6,30.00,SW,225,4.0,-999.0,64,0.00,,,0.00,Wunderground v.1.15,2013-03-28 22:50:00,
2013-03-28 15:54:00,69.5,56.8,30.00,SW,236,4.0,6.0,64,0.00,,,0.00,Wunderground v.1.15,2013-03-28 22:54:00,
2013-03-28 15:55:00,69.3,56.6,30.00,SW,225,5.0,-999.0,64,0.00,,,0.00,Wunderground v.1.15,2013-03-28 22:55:00,
2013-03-28 15:56:00,69.4,56.7,30.00,West,267,4.0,6.0,64,0.00,,,0.00,Wunderground v.1.15,2013-03-28 22:56:00,
2013-03-28 16:00:00,69.2,56.5,30.00,SW,217,5.0,8.0,64,0.00,,,0.00,Wunderground v.1.15,2013-03-28 23:00:00,
2013-03-28 16:02:00,69.1,56.0,30.00,SW,236,5.0,8.0,63,0.00,,,0.00,Wunderground v.1.15,2013-03-28 23:02:00,
2013-03-28 16:05:00,69.2,56.5,30.00,SW,225,4.0,-999.0,64,0.00,,,0.00,Wunderground v.1.15,2013-03-28 23:05:00,
2013-03-28 16:06:00,69.3,56.6,30.00,WSW,237,4.0,8.0,64,0.00,,,0.00,Wunderground v.1.15,2013-03-28 23:06:00,
2013-03-28 16:08:00,69.3,56.6,30.00,SW,219,4.0,8.0,64,0.00,,,0.00,Wunderground v.1.15,2013-03-28 23:08:00,
2013-03-28 16:10:00,69.2,56.5,30.00,SW,225,4.0,-999.0,64,0.00,,,0.00,Wunderground v.1.15,2013-03-28 23:10:00,
2013-03-28 16:14:00,69.2,56.9,30.00,SW,217,5.0,5.0,65,0.00,,,0.00,Wunderground v.1.15,2013-03-28 23:14:00,
2013-03-28 16:15:00,69.6,57.3,30.01,SW,225,3.0,-999.0,65,0.00,,,0.00,Wunderground v.1.15,2013-03-28 23:15:00,
2013-03-28 16:20:00,69.6,57.3,30.01,West,265,4.0,4.0,65,0.00,,,0.00,Wunderground v.1.15,2013-03-28 23:20:00,
2013-03-28 16:24:00,69.7,57.4,30.00,West,277,3.0,4.0,65,0.00,,,0.00,Wunderground v.1.15,2013-03-28 23:24:00,
2013-03-28 16:25:00,69.5,57.2,30.01,West,270,4.0,-999.0,65,0.00,,,0.00,Wunderground v.1.15,2013-03-28 23:25:00,
2013-03-28 16:28:00,69.5,57.2,30.01,West,271,4.0,5.0,65,0.00,,,0.00,Wunderground v.1.15,2013-03-28 23:28:00,
2013-03-28 16:30:00,69.5,57.2,30.01,West,270,4.0,-999.0,65,0.00,,,0.00,Wunderground v.1.15,2013-03-28 23:30:00,
2013-03-28 16:34:00,69.2,56.9,30.00,WNW,291,4.0,8.0,65,0.00,,,0.00,Wunderground v.1.15,2013-03-28 23:34:00,
2013-03-28 16:35:00,69.1,57.3,30.01,NW,315,3.0,-999.0,66,0.00,,,0.00,Wunderground v.1.15,2013-03-28 23:35:00,
2013-03-28 16:38:00,69.2,56.9,30.00,NW,308,4.0,8.0,65,0.00,,,0.00,Wunderground v.1.15,2013-03-28 23:38:00,
2013-03-28 16:40:00,69.1,57.3,30.00,West,275,3.0,3.0,66,0.00,,,0.00,Wunderground v.1.15,2013-03-28 23:40:00,
2013-03-28 16:44:00,69.0,57.2,30.01,West,275,3.0,5.0,66,0.00,,,0.00,Wunderground v.1.15,2013-03-28 23:44:00,
2013-03-28 16:45:00,69.1,56.8,30.01,West,270,3.0,-999.0,65,0.00,,,0.00,Wunderground v.1.15,2013-03-28 23:45:00,
2013-03-28 16:46:00,69.0,57.6,30.00,WNW,286,3.0,5.0,67,0.00,,,0.00,Wunderground v.1.15,2013-03-28 23:46:00,
2013-03-28 16:50:00,69.0,56.7,30.01,West,266,3.0,5.0,65,0.00,,,0.00,Wunderground v.1.15,2013-03-28 23:50:00,
2013-03-28 16:52:00,68.8,56.1,30.01,West,260,4.0,5.0,64,0.00,,,0.00,Wunderground v.1.15,2013-03-28 23:52:00,
2013-03-28 16:55:00,68.9,57.1,30.00,West,270,3.0,-999.0,66,0.00,,,0.00,Wunderground v.1.15,2013-03-28 23:55:00,
2013-03-28 16:58:00,68.8,56.6,30.00,WNW,285,4.0,6.0,65,0.00,,,0.00,Wunderground v.1.15,2013-03-28 23:58:00,
2013-03-28 17:00:00,68.9,56.6,30.00,WNW,295,3.0,3.0,65,0.00,,,0.00,Wunderground v.1.15,2013-03-29 00:00:00,
2013-03-28 17:04:00,69.1,56.8,30.00,WSW,254,3.0,3.0,65,0.00,,,0.00,Wunderground v.1.15,2013-03-29 00:04:00,
2013-03-28 17:05:00,68.9,56.6,30.00,West,270,3.0,-999.0,65,0.00,,,0.00,Wunderground v.1.15,2013-03-29 00:05:00,
2013-03-28 17:06:00,69.0,56.7,30.00,West,274,3.0,3.0,65,0.00,,,0.00,Wunderground v.1.15,2013-03-29 00:06:00,
2013-03-28 17:10:00,68.8,56.1,30.01,West,275,3.0,4.0,64,0.00,,,0.00,Wunderground v.1.15,2013-03-29 00:10:00,
2013-03-28 17:14:00,68.6,55.9,30.01,West,261,4.0,4.0,64,0.00,,,0.00,Wunderground v.1.15,2013-03-29 00:14:00,
2013-03-28 17:15:00,68.5,56.3,30.01,West,270,3.0,-999.0,65,0.00,,,0.00,Wunderground v.1.15,2013-03-29 00:15:00,
2013-03-28 17:20:00,68.5,56.3,30.01,WNW,291,3.0,3.0,65,0.00,,,0.00,Wunderground v.1.15,2013-03-29 00:20:00,
2013-03-28 17:24:00,68.3,56.5,30.01,West,271,3.0,4.0,66,0.00,,,0.00,Wunderground v.1.15,2013-03-29 00:24:00,
2013-03-28 17:25:00,68.4,57.0,30.00,West,270,3.0,-999.0,67,0.00,,,0.00,Wunderground v.1.15,2013-03-29 00:25:00,
2013-03-28 17:28:00,68.4,57.0,30.00,West,275,3.0,4.0,67,0.00,,,0.00,Wunderground v.1.15,2013-03-29 00:28:00,
2013-03-28 17:30:00,68.3,56.9,30.00,NW,325,3.0,3.0,67,0.00,,,0.00,Wunderground v.1.15,2013-03-29 00:30:00,
2013-03-28 17:34:00,68.1,56.7,30.00,WNW,284,2.0,3.0,67,0.00,,,0.00,Wunderground v.1.15,2013-03-29 00:34:00,
2013-03-28 17:35:00,67.8,56.4,30.00,WNW,293,2.0,-999.0,67,0.00,,,0.00,Wunderground v.1.15,2013-03-29 00:35:00,
2013-03-28 17:36:00,68.0,56.6,30.00,West,277,2.0,7.0,67,0.00,,,0.00,Wunderground v.1.15,2013-03-29 00:36:00,
2013-03-28 17:38:00,67.9,56.5,30.00,WNW,288,2.0,7.0,67,0.00,,,0.00,Wunderground v.1.15,2013-03-29 00:38:00,
2013-03-28 17:40:00,67.8,56.4,30.00,WNW,293,2.0,-999.0,67,0.00,,,0.00,Wunderground v.1.15,2013-03-29 00:40:00,
2013-03-28 17:42:00,67.8,56.4,30.00,WNW,300,2.0,2.0,67,0.00,,,0.00,Wunderground v.1.15,2013-03-29 00:42:00,
2013-03-28 17:44:00,67.7,56.3,30.00,NW,320,2.0,3.0,67,0.00,,,0.00,Wunderground v.1.15,2013-03-29 00:44:00,
2013-03-28 17:45:00,67.5,56.6,30.00,WNW,293,2.0,-999.0,68,0.00,,,0.00,Wunderground v.1.15,2013-03-29 00:45:00,
2013-03-28 17:46:00,67.6,56.2,30.00,WNW,297,2.0,3.0,67,0.00,,,0.00,Wunderground v.1.15,2013-03-29 00:46:00,
2013-03-28 17:48:00,67.5,56.6,30.00,WNW,295,1.0,3.0,68,0.00,,,0.00,Wunderground v.1.15,2013-03-29 00:48:00,
2013-03-28 17:50:00,67.5,56.2,30.00,West,277,2.0,3.0,67,0.00,,,0.00,Wunderground v.1.15,2013-03-29 00:50:00,
2013-03-28 17:54:00,67.4,56.5,30.00,West,279,2.0,3.0,68,0.00,,,0.00,Wunderground v.1.15,2013-03-29 00:54:00,
2013-03-28 17:55:00,67.3,56.0,30.00,West,270,2.0,-999.0,67,0.00,,,0.00,Wunderground v.1.15,2013-03-29 00:55:00,
2013-03-28 17:56:00,67.4,56.1,30.00,West,278,2.0,4.0,67,0.00,,,0.00,Wunderground v.1.15,2013-03-29 00:56:00,
2013-03-28 17:58:00,67.3,56.0,30.00,West,280,2.0,4.0,67,0.00,,,0.00,Wunderground v.1.15,2013-03-29 00:58:00,
2013-03-28 18:00:00,67.3,56.0,30.00,West,270,2.0,-999.0,67,0.00,,,0.00,Wunderground v.1.15,2013-03-29 01:00:00,
2013-03-28 18:02:00,67.2,56.3,30.00,WNW,288,2.0,4.0,68,0.00,,,0.00,Wunderground v.1.15,2013-03-29 01:02:00,
2013-03-28 18:04:00,67.2,56.7,30.00,WNW,288,2.0,4.0,69,0.00,,,0.00,Wunderground v.1.15,2013-03-29 01:04:00,
2013-03-28 18:05:00,67.2,56.3,30.01,WNW,293,1.0,-999.0,68,0.00,,,0.00,Wunderground v.1.15,2013-03-29 01:05:00,
2013-03-28 18:08:00,67.2,56.7,30.01,West,281,2.0,4.0,69,0.00,,,0.00,Wunderground v.1.15,2013-03-29 01:08:00,
2013-03-28 18:10:00,67.1,56.2,30.01,West,279,1.0,6.0,68,0.00,,,0.00,Wunderground v.1.15,2013-03-29 01:10:00,
2013-03-28 18:12:00,67.0,56.1,30.01,WNW,286,2.0,6.0,68,0.00,,,0.00,Wunderground v.1.15,2013-03-29 01:12:00,
2013-03-28 18:14:00,66.7,56.2,30.01,West,272,3.0,6.0,69,0.00,,,0.00,Wunderground v.1.15,2013-03-29 01:14:00,
2013-03-28 18:15:00,66.0,55.9,30.01,WNW,293,4.0,-999.0,70,0.00,,,0.00,Wunderground v.1.15,2013-03-29 01:15:00,
2013-03-28 18:18:00,66.2,56.1,30.01,West,275,4.0,6.0,70,0.00,,,0.00,Wunderground v.1.15,2013-03-29 01:18:00,
2013-03-28 18:20:00,66.0,56.3,30.01,NW,312,4.0,4.0,71,0.00,,,0.00,Wunderground v.1.15,2013-03-29 01:20:00,
2013-03-28 18:22:00,65.9,56.2,30.01,NW,312,3.0,4.0,71,0.00,,,0.00,Wunderground v.1.15,2013-03-29 01:22:00,
2013-03-28 18:24:00,65.7,56.0,30.01,WNW,283,3.0,5.0,71,0.00,,,0.00,Wunderground v.1.15,2013-03-29 01:24:00,
2013-03-28 18:25:00,65.4,56.1,30.00,NW,315,2.0,-999.0,72,0.00,,,0.00,Wunderground v.1.15,2013-03-29 01:25:00,
2013-03-28 18:28:00,65.5,56.2,30.01,NW,311,2.0,5.0,72,0.00,,,0.00,Wunderground v.1.15,2013-03-29 01:28:00,
2013-03-28 18:30:00,65.3,56.0,30.00,WNW,301,2.0,2.0,72,0.00,,,0.00,Wunderground v.1.15,2013-03-29 01:30:00,
2013-03-28 18:34:00,65.0,55.8,30.00,WNW,295,2.0,3.0,72,0.00,,,0.00,Wunderground v.1.15,2013-03-29 01:34:00,
2013-03-28 18:35:00,64.4,55.9,30.00,WNW,293,2.0,-999.0,74,0.00,,,0.00,Wunderground v.1.15,2013-03-29 01:35:00,
2013-03-28 18:36:00,64.8,55.9,30.00,West,277,3.0,3.0,73,0.00,,,0.00,Wunderground v.1.15,2013-03-29 01:36:00,
2013-03-28 18:38:00,64.6,55.7,30.00,WNW,296,3.0,4.0,73,0.00,,,0.00,Wunderground v.1.15,2013-03-29 01:38:00,
2013-03-28 18:40:00,64.4,55.9,30.00,WNW,293,2.0,-999.0,74,0.00,,,0.00,Wunderground v.1.15,2013-03-29 01:40:00,
2013-03-28 18:42:00,64.3,55.8,30.00,WNW,295,2.0,3.0,74,0.00,,,0.00,Wunderground v.1.15,2013-03-29 01:42:00,
2013-03-28 18:44:00,64.2,55.7,30.00,WNW,295,2.0,3.0,74,0.00,,,0.00,Wunderground v.1.15,2013-03-29 01:44:00,
2013-03-28 18:45:00,63.9,55.4,30.00,WNW,293,2.0,-999.0,74,0.00,,,0.00,Wunderground v.1.15,2013-03-29 01:45:00,
2013-03-28 18:48:00,64.0,55.5,30.00,West,273,2.0,4.0,74,0.00,,,0.00,Wunderground v.1.15,2013-03-29 01:48:00,
2013-03-28 18:50:00,63.8,55.4,30.00,West,276,2.0,2.0,74,0.00,,,0.00,Wunderground v.1.15,2013-03-29 01:50:00,
2013-03-28 18:55:00,63.1,55.4,30.00,West,270,3.0,-999.0,76,0.00,,,0.00,Wunderground v.1.15,2013-03-29 01:55:00,
2013-03-28 18:58:00,63.2,55.5,30.00,West,277,3.0,5.0,76,0.00,,,0.00,Wunderground v.1.15,2013-03-29 01:58:00,
2013-03-28 19:00:00,63.0,55.3,30.00,West,275,3.0,3.0,76,0.00,,,0.00,Wunderground v.1.15,2013-03-29 02:00:00,
2013-03-28 19:04:00,62.8,55.5,30.00,West,275,2.0,3.0,77,0.00,,,0.00,Wunderground v.1.15,2013-03-29 02:04:00,
2013-03-28 19:05:00,62.4,55.4,29.99,West,270,2.0,-999.0,78,0.00,,,0.00,Wunderground v.1.15,2013-03-29 02:05:00,
2013-03-28 19:08:00,62.5,55.2,29.99,West,277,2.0,3.0,77,0.00,,,0.00,Wunderground v.1.15,2013-03-29 02:08:00,
2013-03-28 19:10:00,62.3,55.4,29.99,West,277,2.0,2.0,78,0.00,,,0.00,Wunderground v.1.15,2013-03-29 02:10:00,
2013-03-28 19:12:00,62.3,55.4,29.99,West,277,2.0,2.0,78,0.00,,,0.00,Wunderground v.1.15,2013-03-29 02:12:00,
2013-03-28 19:14:00,62.2,55.3,29.99,West,279,2.0,2.0,78,0.00,,,0.00,Wunderground v.1.15,2013-03-29 02:14:00,
2013-03-28 19:15:00,61.9,55.0,29.99,West,270,1.0,-999.0,78,0.00,,,0.00,Wunderground v.1.15,2013-03-29 02:15:00,
2013-03-28 19:20:00,61.9,55.0,29.99,West,280,1.0,1.0,78,0.00,,,0.00,Wunderground v.1.15,2013-03-29 02:20:00,
2013-03-28 19:22:00,61.8,54.9,30.00,West,281,1.0,1.0,78,0.00,,,0.00,Wunderground v.1.15,2013-03-29 02:22:00,
2013-03-28 19:25:00,61.7,55.1,30.01,West,270,3.0,-999.0,79,0.00,,,0.00,Wunderground v.1.15,2013-03-29 02:25:00,
2013-03-28 19:26:00,61.8,55.2,30.00,West,269,2.0,4.0,79,0.00,,,0.00,Wunderground v.1.15,2013-03-29 02:26:00,
2013-03-28 19:30:00,61.7,55.1,30.01,West,269,3.0,5.0,79,0.00,,,0.00,Wunderground v.1.15,2013-03-29 02:30:00,
2013-03-28 19:34:00,61.6,55.0,30.00,West,276,5.0,7.0,79,0.00,,,0.00,Wunderground v.1.15,2013-03-29 02:34:00,
2013-03-28 19:35:00,61.3,55.1,30.01,West,270,5.0,-999.0,80,0.00,,,0.00,Wunderground v.1.15,2013-03-29 02:35:00,
2013-03-28 19:36:00,61.4,54.8,30.01,West,268,5.0,7.0,79,0.00,,,0.00,Wunderground v.1.15,2013-03-29 02:36:00,
2013-03-28 19:40:00,61.3,55.1,30.01,West,272,5.0,5.0,80,0.00,,,0.00,Wunderground v.1.15,2013-03-29 02:40:00,
2013-03-28 19:42:00,61.3,55.1,30.01,West,269,4.0,5.0,80,0.00,,,0.00,Wunderground v.1.15,2013-03-29 02:42:00,
2013-03-28 19:45:00,60.9,54.7,30.00,West,270,4.0,-999.0,80,0.00,,,0.00,Wunderground v.1.15,2013-03-29 02:45:00,
2013-03-28 19:46:00,61.1,54.9,30.00,West,274,4.0,5.0,80,0.00,,,0.00,Wunderground v.1.15,2013-03-29 02:46:00,
2013-03-28 19:48:00,61.0,54.8,30.00,West,277,4.0,5.0,80,0.00,,,0.00,Wunderground v.1.15,2013-03-29 02:48:00,
2013-03-28 19:50:00,60.9,54.7,30.00,WNW,295,4.0,4.0,80,0.00,,,0.00,Wunderground v.1.15,2013-03-29 02:50:00,
2013-03-28 19:52:00,60.9,54.7,30.00,West,277,4.0,4.0,80,0.00,,,0.00,Wunderground v.1.15,2013-03-29 02:52:00,
2013-03-28 19:55:00,60.4,54.5,30.00,West,270,3.0,-999.0,81,0.00,,,0.00,Wunderground v.1.15,2013-03-29 02:55:00,
2013-03-28 19:56:00,60.6,54.7,30.01,West,279,3.0,4.0,81,0.00,,,0.00,Wunderground v.1.15,2013-03-29 02:56:00,
2013-03-28 19:58:00,60.5,54.6,30.00,WNW,292,3.0,4.0,81,0.00,,,0.00,Wunderground v.1.15,2013-03-29 02:58:00,
2013-03-28 20:00:00,60.4,54.5,30.00,West,270,3.0,-999.0,81,0.00,,,0.00,Wunderground v.1.15,2013-03-29 03:00:00,
2013-03-28 20:02:00,60.3,54.4,30.00,West,267,3.0,3.0,81,0.00,,,0.00,Wunderground v.1.15,2013-03-29 03:02:00,
2013-03-28 20:05:00,60.1,54.6,30.01,West,270,1.0,-999.0,82,0.00,,,0.00,Wunderground v.1.15,2013-03-29 03:05:00,
2013-03-28 20:06:00,60.2,54.7,30.01,West,280,2.0,3.0,82,0.00,,,0.00,Wunderground v.1.15,2013-03-29 03:06:00,
2013-03-28 20:10:00,60.1,54.6,30.01,West,279,1.0,3.0,82,0.00,,,0.00,Wunderground v.1.15,2013-03-29 03:10:00,
2013-03-28 20:14:00,60.0,54.5,30.01,West,267,2.0,3.0,82,0.00,,,0.00,Wunderground v.1.15,2013-03-29 03:14:00,
2013-03-28 20:15:00,60.0,54.5,30.01,West,270,2.0,-999.0,82,0.00,,,0.00,Wunderground v.1.15,2013-03-29 03:15:00,
2013-03-28 20:20:00,59.9,54.4,30.01,West,267,2.0,2.0,82,0.00,,,0.00,Wunderground v.1.15,2013-03-29 03:20:00,
2013-03-28 20:22:00,59.9,54.4,30.01,West,267,1.0,4.0,82,0.00,,,0.00,Wunderground v.1.15,2013-03-29 03:22:00,
2013-03-28 20:24:00,59.9,54.4,30.01,West,268,1.0,4.0,82,0.00,,,0.00,Wunderground v.1.15,2013-03-29 03:24:00,
2013-03-28 20:25:00,59.9,54.4,30.01,West,270,1.0,-999.0,82,0.00,,,0.00,Wunderground v.1.15,2013-03-29 03:25:00,
2013-03-28 20:28:00,59.9,54.4,30.01,West,268,1.0,4.0,82,0.00,,,0.00,Wunderground v.1.15,2013-03-29 03:28:00,
2013-03-28 20:30:00,59.9,54.4,30.01,West,268,2.0,2.0,82,0.00,,,0.00,Wunderground v.1.15,2013-03-29 03:30:00,
2013-03-28 20:34:00,59.9,54.4,30.01,West,268,2.0,4.0,82,0.00,,,0.00,Wunderground v.1.15,2013-03-29 03:34:00,
2013-03-28 20:35:00,59.9,54.4,30.01,West,270,2.0,-999.0,82,0.00,,,0.00,Wunderground v.1.15,2013-03-29 03:35:00,
2013-03-28 20:36:00,59.9,54.4,30.01,West,265,2.0,4.0,82,0.00,,,0.00,Wunderground v.1.15,2013-03-29 03:36:00,
2013-03-28 20:38:00,60.0,54.5,30.01,West,265,2.0,4.0,82,0.00,,,0.00,Wunderground v.1.15,2013-03-29 03:38:00,
2013-03-28 20:40:00,59.9,54.4,30.01,West,270,2.0,-999.0,82,0.00,,,0.00,Wunderground v.1.15,2013-03-29 03:40:00,
2013-03-28 20:42:00,59.9,54.4,30.01,West,262,2.0,4.0,82,0.00,,,0.00,Wunderground v.1.15,2013-03-29 03:42:00,
2013-03-28 20:44:00,59.9,54.4,30.01,West,262,2.0,4.0,82,0.00,,,0.00,Wunderground v.1.15,2013-03-29 03:44:00,
2013-03-28 20:45:00,59.8,54.6,30.01,WSW,248,2.0,-999.0,83,0.00,,,0.00,Wunderground v.1.15,2013-03-29 03:45:00,
2013-03-28 20:48:00,59.8,54.6,30.01,WSW,258,2.0,4.0,83,0.00,,,0.00,Wunderground v.1.15,2013-03-29 03:48:00,
2013-03-28 20:50:00,59.8,54.6,30.01,WSW,248,2.0,-999.0,83,0.00,,,0.00,Wunderground v.1.15,2013-03-29 03:50:00,
2013-03-28 20:54:00,59.7,54.5,30.01,WSW,258,2.0,3.0,83,0.00,,,0.00,Wunderground v.1.15,2013-03-29 03:54:00,
2013-03-28 20:55:00,59.6,54.4,30.02,WSW,248,2.0,-999.0,83,0.00,,,0.00,Wunderground v.1.15,2013-03-29 03:55:00,
2013-03-28 20:58:00,59.6,54.4,30.02,WSW,258,2.0,3.0,83,0.00,,,0.00,Wunderground v.1.15,2013-03-29 03:58:00,
2013-03-28 21:00:00,59.6,54.4,30.02,WSW,258,2.0,2.0,83,0.00,,,0.00,Wunderground v.1.15,2013-03-29 04:00:00,
2013-03-28 21:04:00,59.6,54.4,30.02,West,261,2.0,3.0,83,0.00,,,0.00,Wunderground v.1.15,2013-03-29 04:04:00,
2013-03-28 21:05:00,59.5,54.7,30.03,West,270,2.0,-999.0,84,0.00,,,0.00,Wunderground v.1.15,2013-03-29 04:05:00,
2013-03-28 21:06:00,59.6,54.4,30.03,West,261,2.0,3.0,83,0.00,,,0.00,Wunderground v.1.15,2013-03-29 04:06:00,
2013-03-28 21:08:00,59.5,54.7,30.03,West,261,2.0,3.0,84,0.00,,,0.00,Wunderground v.1.15,2013-03-29 04:08:00,
2013-03-28 21:10:00,59.5,54.7,30.03,West,270,2.0,-999.0,84,0.00,,,0.00,Wunderground v.1.15,2013-03-29 04:10:00,
2013-03-28 21:12:00,59.4,54.6,30.03,West,261,2.0,3.0,84,0.00,,,0.00,Wunderground v.1.15,2013-03-29 04:12:00,
2013-03-28 21:15:00,59.2,54.4,30.03,West,270,1.0,-999.0,84,0.00,,,0.00,Wunderground v.1.15,2013-03-29 04:15:00,
2013-03-28 21:18:00,59.3,54.5,30.03,West,261,1.0,3.0,84,0.00,,,0.00,Wunderground v.1.15,2013-03-29 04:18:00,
2013-03-28 21:20:00,59.2,54.4,30.03,West,270,1.0,-999.0,84,0.00,,,0.00,Wunderground v.1.15,2013-03-29 04:20:00,
2013-03-28 21:22:00,59.2,54.4,30.03,West,261,1.0,2.0,84,0.00,,,0.00,Wunderground v.1.15,2013-03-29 04:22:00,
2013-03-28 21:24:00,59.1,54.3,30.03,West,261,1.0,2.0,84,0.00,,,0.00,Wunderground v.1.15,2013-03-29 04:24:00,
2013-03-28 21:25:00,59.0,54.2,30.03,West,270,1.0,-999.0,84,0.00,,,0.00,Wunderground v.1.15,2013-03-29 04:25:00,
2013-03-28 21:26:00,59.1,54.3,30.03,West,261,2.0,2.0,84,0.00,,,0.00,Wunderground v.1.15,2013-03-29 04:26:00,
2013-03-28 21:28:00,59.0,54.2,30.03,West,261,1.0,2.0,84,0.00,,,0.00,Wunderground v.1.15,2013-03-29 04:28:00,
2013-03-28 21:30:00,59.0,54.2,30.03,West,270,1.0,-999.0,84,0.00,,,0.00,Wunderground v.1.15,2013-03-29 04:30:00,
2013-03-28 21:32:00,58.9,54.1,30.03,West,261,1.0,1.0,84,0.00,,,0.00,Wunderground v.1.15,2013-03-29 04:32:00,
2013-03-28 21:34:00,58.8,54.0,30.03,West,263,1.0,1.0,84,0.00,,,0.00,Wunderground v.1.15,2013-03-29 04:34:00,
2013-03-28 21:35:00,58.6,53.8,30.04,West,270,0.0,-999.0,84,0.00,,,0.00,Wunderground v.1.15,2013-03-29 04:35:00,
2013-03-28 21:38:00,58.7,53.9,30.04,West,263,1.0,2.0,84,0.00,,,0.00,Wunderground v.1.15,2013-03-29 04:38:00,
2013-03-28 21:40:00,58.6,53.8,30.04,West,263,0.0,0.0,84,0.00,,,0.00,Wunderground v.1.15,2013-03-29 04:40:00,
2013-03-28 21:44:00,58.4,53.6,30.04,West,263,0.0,0.0,84,0.00,,,0.00,Wunderground v.1.15,2013-03-29 04:44:00,
2013-03-28 21:45:00,58.2,53.7,30.04,West,270,0.0,-999.0,85,0.00,,,0.00,Wunderground v.1.15,2013-03-29 04:45:00,
2013-03-28 21:46:00,58.3,53.5,30.04,West,263,0.0,0.0,84,0.00,,,0.00,Wunderground v.1.15,2013-03-29 04:46:00,
2013-03-28 21:50:00,58.2,53.7,30.04,West,270,0.0,-999.0,85,0.00,,,0.00,Wunderground v.1.15,2013-03-29 04:50:00,
2013-03-28 21:55:00,57.8,53.3,30.04,West,270,0.0,-999.0,85,0.00,,,0.00,Wunderground v.1.15,2013-03-29 04:55:00,
2013-03-28 22:00:00,57.8,53.3,30.04,West,270,0.0,-999.0,85,0.00,,,0.00,Wunderground v.1.15,2013-03-29 05:00:00,
2013-03-28 22:05:00,57.5,53.0,30.05,West,270,0.0,-999.0,85,0.00,,,0.00,Wunderground v.1.15,2013-03-29 05:05:00,
2013-03-28 22:10:00,57.5,53.0,30.05,West,270,0.0,-999.0,85,0.00,,,0.00,Wunderground v.1.15,2013-03-29 05:10:00,
2013-03-28 22:15:00,57.3,53.1,30.05,N/A,-737280,0.0,-999.0,86,0.00,,,0.00,Wunderground v.1.15,2013-03-29 05:15:00,
2013-03-28 22:20:00,57.3,53.1,30.05,N/A,-737280,0.0,-999.0,86,0.00,,,0.00,Wunderground v.1.15,2013-03-29 05:20:00,
2013-03-28 22:25:00,57.0,52.9,30.05,N/A,-737280,0.0,-999.0,86,0.00,,,0.00,Wunderground v.1.15,2013-03-29 05:25:00,
2013-03-28 22:30:00,57.0,52.9,30.05,N/A,-737280,0.0,-999.0,86,0.00,,,0.00,Wunderground v.1.15,2013-03-29 05:30:00,
2013-03-28 22:35:00,56.8,52.7,30.06,N/A,-737280,0.0,-999.0,86,0.00,,,0.00,Wunderground v.1.15,2013-03-29 05:35:00,
2013-03-28 22:40:00,56.8,52.7,30.06,N/A,-737280,0.0,-999.0,86,0.00,,,0.00,Wunderground v.1.15,2013-03-29 05:40:00,
2013-03-28 22:45:00,56.7,52.9,30.06,N/A,-737280,0.0,-999.0,87,0.00,,,0.00,Wunderground v.1.15,2013-03-29 05:45:00,
2013-03-28 22:50:00,56.7,52.9,30.06,N/A,-737280,0.0,-999.0,87,0.00,,,0.00,Wunderground v.1.15,2013-03-29 05:50:00,
2013-03-28 22:55:00,56.6,52.8,30.06,N/A,-737280,0.0,-999.0,87,0.00,,,0.00,Wunderground v.1.15,2013-03-29 05:55:00,
2013-03-28 23:00:00,56.6,52.8,30.06,N/A,-737280,0.0,-999.0,87,0.00,,,0.00,Wunderground v.1.15,2013-03-29 06:00:00,
2013-03-28 23:05:00,56.6,52.8,30.06,N/A,-737280,0.0,-999.0,87,0.00,,,0.00,Wunderground v.1.15,2013-03-29 06:05:00,
2013-03-28 23:10:00,56.6,52.8,30.06,N/A,-737280,0.0,-999.0,87,0.00,,,0.00,Wunderground v.1.15,2013-03-29 06:10:00,
2013-03-28 23:15:00,56.4,52.6,30.05,N/A,-737280,0.0,-999.0,87,0.00,,,0.00,Wunderground v.1.15,2013-03-29 06:15:00,
2013-03-28 23:20:00,56.4,52.6,30.05,N/A,-737280,0.0,-999.0,87,0.00,,,0.00,Wunderground v.1.15,2013-03-29 06:20:00,
2013-03-28 23:25:00,56.2,52.4,30.05,N/A,-737280,0.0,-999.0,87,0.00,,,0.00,Wunderground v.1.15,2013-03-29 06:25:00,
2013-03-28 23:30:00,56.2,52.4,30.05,N/A,-737280,0.0,-999.0,87,0.00,,,0.00,Wunderground v.1.15,2013-03-29 06:30:00,
2013-03-28 23:35:00,55.9,52.1,30.05,N/A,-737280,0.0,-999.0,87,0.00,,,0.00,Wunderground v.1.15,2013-03-29 06:35:00,
2013-03-28 23:40:00,55.9,52.1,30.05,N/A,-737280,0.0,-999.0,87,0.00,,,0.00,Wunderground v.1.15,2013-03-29 06:40:00,
2013-03-28 23:45:00,55.6,52.1,30.06,N/A,-737280,0.0,-999.0,88,0.00,,,0.00,Wunderground v.1.15,2013-03-29 06:45:00,
2013-03-28 23:50:00,55.6,52.1,30.06,N/A,-737280,0.0,-999.0,88,0.00,,,0.00,Wunderground v.1.15,2013-03-29 06:50:00,
2013-03-28 23:55:00,55.6,52.1,30.05,N/A,-737280,0.0,-999.0,88,0.00,,,0.00,Wunderground v.1.15,2013-03-29 06:55:00,